sensor_id;sensor_type;location;lat;lon;timestamp;pressure;altitude;pressure_sealevel;temperature;humidity
34500;BME280;20745;50.882;6.962;2022-07-31T00:00:51;101182.19;;;22.34;59.54
34500;BME280;20745;50.882;6.962;2022-07-31T00:03:18;101178.75;;;22.27;60.27
34500;BME280;20745;50.882;6.962;2022-07-31T00:05:45;101177.34;;;22.24;60.05
34500;BME280;20745;50.882;6.962;2022-07-31T00:08:13;101177.09;;;22.26;59.69
34500;BME280;20745;50.882;6.962;2022-07-31T00:10:40;101184.75;;;22.24;60.14
34500;BME280;20745;50.882;6.962;2022-07-31T00:13:07;101177.84;;;22.21;59.79
34500;BME280;20745;50.882;6.962;2022-07-31T00:15:46;101173.06;;;22.17;60.10
34500;BME280;20745;50.882;6.962;2022-07-31T00:18:20;101176.09;;;22.04;61.21
34500;BME280;20745;50.882;6.962;2022-07-31T00:20:52;101172.69;;;22.13;60.40
34500;BME280;20745;50.882;6.962;2022-07-31T00:23:25;101176.53;;;22.12;60.12
34500;BME280;20745;50.882;6.962;2022-07-31T00:26:10;101181.69;;;22.09;60.21
34500;BME280;20745;50.882;6.962;2022-07-31T00:28:38;101175.00;;;22.05;59.99
34500;BME280;20745;50.882;6.962;2022-07-31T00:31:05;101175.00;;;22.05;60.30
34500;BME280;20745;50.882;6.962;2022-07-31T00:33:32;101162.84;;;22.01;59.96
34500;BME280;20745;50.882;6.962;2022-07-31T00:35:59;101167.50;;;22.00;60.51
34500;BME280;20745;50.882;6.962;2022-07-31T00:38:26;101161.31;;;21.93;60.98
34500;BME280;20745;50.882;6.962;2022-07-31T00:40:54;101153.47;;;21.85;61.05
34500;BME280;20745;50.882;6.962;2022-07-31T00:43:21;101156.56;;;21.77;61.59
34500;BME280;20745;50.882;6.962;2022-07-31T00:45:53;101156.34;;;21.67;61.88
34500;BME280;20745;50.882;6.962;2022-07-31T00:48:25;101148.69;;;21.69;61.89
34500;BME280;20745;50.882;6.962;2022-07-31T00:50:55;101143.81;;;21.59;62.39
34500;BME280;20745;50.882;6.962;2022-07-31T00:53:30;101144.53;;;21.67;62.26
34500;BME280;20745;50.882;6.962;2022-07-31T00:55:57;101133.84;;;21.70;61.60
34500;BME280;20745;50.882;6.962;2022-07-31T00:58:27;101137.56;;;21.76;61.48
34500;BME280;20745;50.882;6.962;2022-07-31T01:01:03;101134.94;;;21.81;61.35
34500;BME280;20745;50.882;6.962;2022-07-31T01:03:31;101130.41;;;21.75;61.51
34500;BME280;20745;50.882;6.962;2022-07-31T01:05:58;101128.59;;;21.68;61.93
34500;BME280;20745;50.882;6.962;2022-07-31T01:08:26;101125.84;;;21.68;61.85
34500;BME280;20745;50.882;6.962;2022-07-31T01:11:05;101123.50;;;21.60;62.36
34500;BME280;20745;50.882;6.962;2022-07-31T01:16:28;101121.63;;;21.49;63.01
34500;BME280;20745;50.882;6.962;2022-07-31T01:19:24;101127.34;;;21.59;62.68
34500;BME280;20745;50.882;6.962;2022-07-31T01:25:23;101130.13;;;21.48;62.98
34500;BME280;20745;50.882;6.962;2022-07-31T01:31:02;101135.97;;;21.40;63.38
34500;BME280;20745;50.882;6.962;2022-07-31T01:33:58;101129.41;;;21.41;63.34
34500;BME280;20745;50.882;6.962;2022-07-31T01:37:04;101127.97;;;21.38;63.49
34500;BME280;20745;50.882;6.962;2022-07-31T01:39:50;101123.31;;;21.39;63.24
34500;BME280;20745;50.882;6.962;2022-07-31T01:42:38;101115.91;;;21.39;63.45
34500;BME280;20745;50.882;6.962;2022-07-31T01:45:07;101119.38;;;21.35;63.55
34500;BME280;20745;50.882;6.962;2022-07-31T01:47:38;101123.22;;;21.34;63.85
34500;BME280;20745;50.882;6.962;2022-07-31T01:50:09;101119.97;;;21.25;63.92
34500;BME280;20745;50.882;6.962;2022-07-31T01:52:58;101119.88;;;21.20;64.67
34500;BME280;20745;50.882;6.962;2022-07-31T01:55:30;101108.66;;;21.22;64.08
34500;BME280;20745;50.882;6.962;2022-07-31T01:58:19;101111.75;;;21.25;64.17
34500;BME280;20745;50.882;6.962;2022-07-31T02:00:50;101114.78;;;21.12;65.17
34500;BME280;20745;50.882;6.962;2022-07-31T02:03:20;101115.50;;;21.08;65.13
34500;BME280;20745;50.882;6.962;2022-07-31T02:06:09;101117.03;;;21.04;65.48
34500;BME280;20745;50.882;6.962;2022-07-31T02:08:41;101109.53;;;20.99;65.34
34500;BME280;20745;50.882;6.962;2022-07-31T02:11:09;101119.91;;;20.97;65.93
34500;BME280;20745;50.882;6.962;2022-07-31T02:13:37;101112.84;;;21.01;66.01
34500;BME280;20745;50.882;6.962;2022-07-31T02:16:04;101119.06;;;20.97;66.22
34500;BME280;20745;50.882;6.962;2022-07-31T02:18:33;101112.13;;;20.94;65.82
34500;BME280;20745;50.882;6.962;2022-07-31T02:21:03;101114.03;;;20.94;65.40
34500;BME280;20745;50.882;6.962;2022-07-31T02:23:33;101115.97;;;20.93;65.52
34500;BME280;20745;50.882;6.962;2022-07-31T02:26:08;101118.94;;;20.92;65.86
34500;BME280;20745;50.882;6.962;2022-07-31T02:28:54;101111.41;;;20.87;66.31
34500;BME280;20745;50.882;6.962;2022-07-31T02:31:22;101110.47;;;20.93;65.88
34500;BME280;20745;50.882;6.962;2022-07-31T02:33:51;101108.31;;;20.95;65.75
34500;BME280;20745;50.882;6.962;2022-07-31T02:36:28;101110.00;;;20.96;65.61
34500;BME280;20745;50.882;6.962;2022-07-31T02:39:06;101105.31;;;20.97;65.92
34500;BME280;20745;50.882;6.962;2022-07-31T02:41:34;101105.00;;;20.93;65.77
34500;BME280;20745;50.882;6.962;2022-07-31T02:44:02;101110.00;;;20.96;65.51
34500;BME280;20745;50.882;6.962;2022-07-31T02:46:30;101102.00;;;20.95;64.91
34500;BME280;20745;50.882;6.962;2022-07-31T02:49:16;101098.84;;;20.91;65.70
34500;BME280;20745;50.882;6.962;2022-07-31T02:51:43;101097.81;;;20.92;65.40
34500;BME280;20745;50.882;6.962;2022-07-31T02:54:16;101099.94;;;20.90;65.34
34500;BME280;20745;50.882;6.962;2022-07-31T02:56:46;101096.00;;;20.86;64.77
34500;BME280;20745;50.882;6.962;2022-07-31T02:59:14;101089.81;;;20.79;65.59
34500;BME280;20745;50.882;6.962;2022-07-31T03:01:46;101097.44;;;20.89;65.15
34500;BME280;20745;50.882;6.962;2022-07-31T03:04:28;101109.59;;;20.81;66.22
34500;BME280;20745;50.882;6.962;2022-07-31T03:06:56;101119.53;;;20.82;68.56
34500;BME280;20745;50.882;6.962;2022-07-31T03:09:23;101124.78;;;20.72;68.51
34500;BME280;20745;50.882;6.962;2022-07-31T03:11:50;101127.63;;;20.77;67.67
34500;BME280;20745;50.882;6.962;2022-07-31T03:14:18;101117.38;;;20.84;67.68
34500;BME280;20745;50.882;6.962;2022-07-31T03:16:51;101120.09;;;20.84;68.35
34500;BME280;20745;50.882;6.962;2022-07-31T03:19:20;101110.31;;;20.88;68.28
34500;BME280;20745;50.882;6.962;2022-07-31T03:21:48;101115.56;;;20.90;68.43
34500;BME280;20745;50.882;6.962;2022-07-31T03:24:35;101111.41;;;20.87;68.19
34500;BME280;20745;50.882;6.962;2022-07-31T03:27:06;101105.66;;;20.89;67.90
34500;BME280;20745;50.882;6.962;2022-07-31T03:29:40;101112.59;;;20.91;67.42
34500;BME280;20745;50.882;6.962;2022-07-31T03:32:10;101112.97;;;20.83;67.30
34500;BME280;20745;50.882;6.962;2022-07-31T03:34:51;101115.81;;;20.77;67.21
34500;BME280;20745;50.882;6.962;2022-07-31T03:37:18;101109.75;;;20.86;67.51
34500;BME280;20745;50.882;6.962;2022-07-31T03:39:51;101108.78;;;20.92;66.36
34500;BME280;20745;50.882;6.962;2022-07-31T03:42:18;101105.06;;;20.87;67.71
34500;BME280;20745;50.882;6.962;2022-07-31T03:44:46;101105.91;;;20.76;67.99
34500;BME280;20745;50.882;6.962;2022-07-31T03:47:17;101108.66;;;20.87;67.38
34500;BME280;20745;50.882;6.962;2022-07-31T03:49:47;101111.78;;;20.91;67.18
34500;BME280;20745;50.882;6.962;2022-07-31T03:52:15;101109.84;;;20.91;66.88
34500;BME280;20745;50.882;6.962;2022-07-31T03:54:42;101105.19;;;20.92;67.45
34500;BME280;20745;50.882;6.962;2022-07-31T03:57:10;101098.84;;;20.91;67.11
34500;BME280;20745;50.882;6.962;2022-07-31T03:59:56;101096.50;;;20.95;66.21
34500;BME280;20745;50.882;6.962;2022-07-31T04:02:31;101107.50;;;20.95;66.94
34500;BME280;20745;50.882;6.962;2022-07-31T04:04:58;101094.34;;;20.97;66.69
34500;BME280;20745;50.882;6.962;2022-07-31T04:07:26;101104.09;;;20.93;66.81
34500;BME280;20745;50.882;6.962;2022-07-31T04:09:54;101105.91;;;20.87;67.50
34500;BME280;20745;50.882;6.962;2022-07-31T04:12:22;101099.50;;;20.93;66.86
34500;BME280;20745;50.882;6.962;2022-07-31T04:15:08;101107.34;;;20.90;67.18
34500;BME280;20745;50.882;6.962;2022-07-31T04:17:35;101110.06;;;20.90;67.73
34500;BME280;20745;50.882;6.962;2022-07-31T04:20:21;101119.66;;;20.99;67.31
34500;BME280;20745;50.882;6.962;2022-07-31T04:22:58;101115.97;;;20.93;67.60
34500;BME280;20745;50.882;6.962;2022-07-31T04:25:25;101122.88;;;20.96;67.42
34500;BME280;20745;50.882;6.962;2022-07-31T04:27:59;101112.28;;;20.99;67.75
34500;BME280;20745;50.882;6.962;2022-07-31T04:30:27;101111.66;;;20.97;67.96
34500;BME280;20745;50.882;6.962;2022-07-31T04:32:54;101110.00;;;20.96;67.93
34500;BME280;20745;50.882;6.962;2022-07-31T04:35:40;101110.81;;;20.97;67.79
34500;BME280;20745;50.882;6.962;2022-07-31T04:38:08;101113.44;;;20.92;67.82
34500;BME280;20745;50.882;6.962;2022-07-31T04:40:39;101111.78;;;20.91;67.49
34500;BME280;20745;50.882;6.962;2022-07-31T04:43:14;101109.41;;;20.94;67.34
34500;BME280;20745;50.882;6.962;2022-07-31T04:45:50;101105.00;;;20.93;67.87
34500;BME280;20745;50.882;6.962;2022-07-31T04:48:17;101113.31;;;20.98;68.07
34500;BME280;20745;50.882;6.962;2022-07-31T04:51:02;101103.19;;;20.99;68.22
34500;BME280;20745;50.882;6.962;2022-07-31T04:53:32;101107.03;;;20.98;68.55
34500;BME280;20745;50.882;6.962;2022-07-31T04:56:04;101108.06;;;20.97;68.49
34500;BME280;20745;50.882;6.962;2022-07-31T04:59:02;101111.53;;;21.04;68.45
34500;BME280;20745;50.882;6.962;2022-07-31T05:01:48;101114.03;;;21.05;68.26
34500;BME280;20745;50.882;6.962;2022-07-31T05:04:19;101110.56;;;21.10;67.76
34500;BME280;20745;50.882;6.962;2022-07-31T05:06:56;101120.28;;;21.12;68.39
34500;BME280;20745;50.882;6.962;2022-07-31T05:09:30;101114.63;;;21.19;67.97
34500;BME280;20745;50.882;6.962;2022-07-31T05:12:04;101109.25;;;21.24;68.05
34500;BME280;20745;50.882;6.962;2022-07-31T05:14:32;101112.34;;;21.27;68.03
34500;BME280;20745;50.882;6.962;2022-07-31T05:17:15;101113.19;;;21.28;67.68
34500;BME280;20745;50.882;6.962;2022-07-31T05:19:42;101112.34;;;21.27;66.77
34500;BME280;20745;50.882;6.962;2022-07-31T05:22:10;101116.97;;;21.38;65.93
34500;BME280;20745;50.882;6.962;2022-07-31T05:24:38;101114.59;;;21.42;65.64
34500;BME280;20745;50.882;6.962;2022-07-31T05:27:06;101118.16;;;21.54;66.38
34500;BME280;20745;50.882;6.962;2022-07-31T05:29:37;101125.63;;;21.58;67.22
34500;BME280;20745;50.882;6.962;2022-07-31T05:32:12;101124.53;;;21.71;66.83
34500;BME280;20745;50.882;6.962;2022-07-31T05:34:40;101120.44;;;21.85;67.06
34500;BME280;20745;50.882;6.962;2022-07-31T05:37:12;101128.06;;;21.95;67.62
34500;BME280;20745;50.882;6.962;2022-07-31T05:39:44;101126.47;;;21.99;66.17
34500;BME280;20745;50.882;6.962;2022-07-31T05:42:29;101123.72;;;21.99;66.01
34500;BME280;20745;50.882;6.962;2022-07-31T05:44:57;101113.69;;;22.04;65.69
34500;BME280;20745;50.882;6.962;2022-07-31T05:47:24;101111.16;;;22.03;64.21
34500;BME280;20745;50.882;6.962;2022-07-31T05:50:12;101117.34;;;22.10;64.45
34500;BME280;20745;50.882;6.962;2022-07-31T05:52:40;101113.00;;;22.14;64.55
34500;BME280;20745;50.882;6.962;2022-07-31T05:55:08;101119.13;;;22.16;63.96
34500;BME280;20745;50.882;6.962;2022-07-31T05:57:54;101122.78;;;22.21;64.81
34500;BME280;20745;50.882;6.962;2022-07-31T06:00:21;101128.63;;;22.25;64.58
34500;BME280;20745;50.882;6.962;2022-07-31T06:03:07;101124.03;;;22.30;65.02
34500;BME280;20745;50.882;6.962;2022-07-31T06:05:34;101126.53;;;22.32;65.52
34500;BME280;20745;50.882;6.962;2022-07-31T06:08:01;101120.66;;;22.40;64.64
34500;BME280;20745;50.882;6.962;2022-07-31T06:10:36;101127.41;;;22.49;63.30
34500;BME280;20745;50.882;6.962;2022-07-31T06:13:04;101112.41;;;22.56;62.89
34500;BME280;20745;50.882;6.962;2022-07-31T06:15:34;101117.03;;;22.67;62.52
34500;BME280;20745;50.882;6.962;2022-07-31T06:18:21;101119.66;;;22.79;61.04
34500;BME280;20745;50.882;6.962;2022-07-31T06:20:50;101120.91;;;22.88;60.78
34500;BME280;20745;50.882;6.962;2022-07-31T06:23:17;101123.75;;;22.93;60.65
34500;BME280;20745;50.882;6.962;2022-07-31T06:25:54;101127.06;;;22.95;60.45
34500;BME280;20745;50.882;6.962;2022-07-31T06:28:21;101116.69;;;23.02;60.43
34500;BME280;20745;50.882;6.962;2022-07-31T06:31:18;101121.19;;;23.08;59.78
34500;BME280;20745;50.882;6.962;2022-07-31T06:33:48;101118.84;;;23.16;59.66
34500;BME280;20745;50.882;6.962;2022-07-31T06:36:17;101123.53;;;23.16;59.36
34500;BME280;20745;50.882;6.962;2022-07-31T06:39:03;101121.69;;;23.21;58.55
34500;BME280;20745;50.882;6.962;2022-07-31T06:41:36;101120.97;;;23.26;59.21
34500;BME280;20745;50.882;6.962;2022-07-31T06:44:18;101117.59;;;23.24;58.51
34500;BME280;20745;50.882;6.962;2022-07-31T06:46:46;101123.75;;;23.31;58.67
34500;BME280;20745;50.882;6.962;2022-07-31T06:49:33;101121.22;;;23.24;58.39
34500;BME280;20745;50.882;6.962;2022-07-31T06:52:01;101119.84;;;23.27;58.45
34500;BME280;20745;50.882;6.962;2022-07-31T06:54:32;101118.34;;;23.36;58.85
34500;BME280;20745;50.882;6.962;2022-07-31T06:56:59;101113.47;;;23.43;58.67
34500;BME280;20745;50.882;6.962;2022-07-31T06:59:26;101114.63;;;23.47;58.53
34500;BME280;20745;50.882;6.962;2022-07-31T07:02:07;101106.94;;;23.49;58.39
34500;BME280;20745;50.882;6.962;2022-07-31T07:04:34;101114.88;;;23.45;58.22
34500;BME280;20745;50.882;6.962;2022-07-31T07:07:28;101103.00;;;23.45;58.41
34500;BME280;20745;50.882;6.962;2022-07-31T07:10:04;101117.13;;;23.48;58.42
34500;BME280;20745;50.882;6.962;2022-07-31T07:12:35;101121.78;;;23.48;58.28
34500;BME280;20745;50.882;6.962;2022-07-31T07:15:03;101121.78;;;23.48;58.04
34500;BME280;20745;50.882;6.962;2022-07-31T07:17:38;101130.31;;;23.46;57.89
34500;BME280;20745;50.882;6.962;2022-07-31T07:20:05;101121.28;;;23.51;57.81
34500;BME280;20745;50.882;6.962;2022-07-31T07:22:32;101118.09;;;23.59;57.23
34500;BME280;20745;50.882;6.962;2022-07-31T07:25:18;101108.72;;;23.60;56.75
34500;BME280;20745;50.882;6.962;2022-07-31T07:27:46;101112.88;;;23.62;56.32
34500;BME280;20745;50.882;6.962;2022-07-31T07:30:13;101117.00;;;23.60;56.56
34500;BME280;20745;50.882;6.962;2022-07-31T07:32:40;101120.56;;;23.60;56.23
34500;BME280;20745;50.882;6.962;2022-07-31T07:35:16;101119.91;;;23.53;56.89
34500;BME280;20745;50.882;6.962;2022-07-31T07:37:47;101119.09;;;23.53;56.09
34500;BME280;20745;50.882;6.962;2022-07-31T07:40:14;101116.59;;;23.51;55.98
34500;BME280;20745;50.882;6.962;2022-07-31T07:42:43;101119.28;;;23.46;55.60
34500;BME280;20745;50.882;6.962;2022-07-31T07:45:29;101106.25;;;23.42;55.51
34500;BME280;20745;50.882;6.962;2022-07-31T07:47:56;101097.19;;;23.41;55.83
34500;BME280;20745;50.882;6.962;2022-07-31T07:50:43;101098.06;;;23.47;55.64
34500;BME280;20745;50.882;6.962;2022-07-31T07:53:11;101093.69;;;23.51;55.55
34500;BME280;20745;50.882;6.962;2022-07-31T07:55:38;101101.00;;;23.62;55.74
34500;BME280;20745;50.882;6.962;2022-07-31T07:58:14;101106.13;;;23.75;55.47
34500;BME280;20745;50.882;6.962;2022-07-31T08:00:44;101097.41;;;23.83;55.04
34500;BME280;20745;50.882;6.962;2022-07-31T08:03:11;101094.13;;;23.86;54.89
34500;BME280;20745;50.882;6.962;2022-07-31T08:06:20;101082.75;;;24.04;54.65
34500;BME280;20745;50.882;6.962;2022-07-31T08:08:48;101085.31;;;24.11;54.56
34500;BME280;20745;50.882;6.962;2022-07-31T08:11:16;101087.31;;;24.20;54.49
34500;BME280;20745;50.882;6.962;2022-07-31T08:13:45;101092.41;;;24.33;53.80
34500;BME280;20745;50.882;6.962;2022-07-31T08:16:25;101079.25;;;24.45;53.82
34500;BME280;20745;50.882;6.962;2022-07-31T08:18:52;101082.41;;;24.59;54.05
34500;BME280;20745;50.882;6.962;2022-07-31T08:21:20;101083.63;;;24.68;53.34
34500;BME280;20745;50.882;6.962;2022-07-31T08:23:51;101085.03;;;24.75;53.52
34500;BME280;20745;50.882;6.962;2022-07-31T08:26:18;101085.59;;;24.72;52.31
34500;BME280;20745;50.882;6.962;2022-07-31T08:28:47;101082.44;;;24.64;52.79
34500;BME280;20745;50.882;6.962;2022-07-31T08:31:21;101085.03;;;24.75;52.97
34500;BME280;20745;50.882;6.962;2022-07-31T08:33:48;101072.91;;;24.81;53.10
34500;BME280;20745;50.882;6.962;2022-07-31T08:36:18;101073.81;;;24.92;52.81
34500;BME280;20745;50.882;6.962;2022-07-31T08:38:53;101074.72;;;25.02;52.58
34500;BME280;20745;50.882;6.962;2022-07-31T08:41:25;101079.16;;;25.08;52.30
34500;BME280;20745;50.882;6.962;2022-07-31T08:43:54;101072.88;;;25.18;52.53
34500;BME280;20745;50.882;6.962;2022-07-31T08:46:35;101072.03;;;25.12;51.90
34500;BME280;20745;50.882;6.962;2022-07-31T08:49:03;101058.41;;;25.06;52.30
34500;BME280;20745;50.882;6.962;2022-07-31T08:51:37;101073.63;;;25.08;52.56
34500;BME280;20745;50.882;6.962;2022-07-31T08:54:26;101064.22;;;25.04;52.43
34500;BME280;20745;50.882;6.962;2022-07-31T08:56:59;101058.41;;;25.06;52.41
34500;BME280;20745;50.882;6.962;2022-07-31T08:59:27;101064.84;;;25.21;52.50
34500;BME280;20745;50.882;6.962;2022-07-31T09:01:54;101068.81;;;25.35;51.56
34500;BME280;20745;50.882;6.962;2022-07-31T09:04:25;101062.78;;;25.48;51.64
34500;BME280;20745;50.882;6.962;2022-07-31T09:06:54;101060.94;;;25.74;52.19
34500;BME280;20745;50.882;6.962;2022-07-31T09:09:24;101068.16;;;25.85;50.63
34500;BME280;20745;50.882;6.962;2022-07-31T09:12:11;101057.94;;;25.90;50.81
34500;BME280;20745;50.882;6.962;2022-07-31T09:14:46;101060.44;;;25.97;50.70
34500;BME280;20745;50.882;6.962;2022-07-31T09:17:34;101062.06;;;25.78;50.83
34500;BME280;20745;50.882;6.962;2022-07-31T09:20:03;101056.25;;;25.79;51.17
34500;BME280;20745;50.882;6.962;2022-07-31T09:22:37;101049.06;;;25.83;51.42
34500;BME280;20745;50.882;6.962;2022-07-31T09:25:10;101055.13;;;25.80;51.42
34500;BME280;20745;50.882;6.962;2022-07-31T09:28:01;101057.63;;;25.87;51.03
34500;BME280;20745;50.882;6.962;2022-07-31T09:30:28;101055.47;;;25.94;50.16
34500;BME280;20745;50.882;6.962;2022-07-31T09:33:15;101050.47;;;25.91;50.08
34500;BME280;20745;50.882;6.962;2022-07-31T09:35:47;101054.59;;;25.88;50.42
34500;BME280;20745;50.882;6.962;2022-07-31T09:38:19;101047.41;;;25.82;50.79
34500;BME280;20745;50.882;6.962;2022-07-31T09:40:46;101054.31;;;25.85;51.19
34500;BME280;20745;50.882;6.962;2022-07-31T09:43:41;101061.25;;;25.82;51.42
34500;BME280;20745;50.882;6.962;2022-07-31T09:46:46;101053.22;;;25.86;51.63
34500;BME280;20745;50.882;6.962;2022-07-31T09:49:14;101054.59;;;25.83;51.45
34500;BME280;20745;50.882;6.962;2022-07-31T09:51:44;101053.47;;;25.69;52.13
34500;BME280;20745;50.882;6.962;2022-07-31T09:54:30;101050.13;;;25.67;53.22
34500;BME280;20745;50.882;6.962;2022-07-31T09:57:13;101045.69;;;25.61;56.17
34500;BME280;20745;50.882;6.962;2022-07-31T09:59:41;101047.81;;;25.34;59.23
34500;BME280;20745;50.882;6.962;2022-07-31T10:02:12;101054.09;;;25.30;59.65
34500;BME280;20745;50.882;6.962;2022-07-31T10:04:41;101054.97;;;25.35;59.12
34500;BME280;20745;50.882;6.962;2022-07-31T10:07:09;101043.41;;;25.43;57.84
34500;BME280;20745;50.882;6.962;2022-07-31T10:09:59;101057.63;;;25.72;55.27
34500;BME280;20745;50.882;6.962;2022-07-31T10:12:28;101055.16;;;25.85;54.31
34500;BME280;20745;50.882;6.962;2022-07-31T10:15:16;101065.47;;;26.25;54.20
34500;BME280;20745;50.882;6.962;2022-07-31T10:17:50;101060.78;;;26.41;52.98
34500;BME280;20745;50.882;6.962;2022-07-31T10:20:21;101063.56;;;26.46;52.61
34500;BME280;20745;50.882;6.962;2022-07-31T10:22:55;101064.66;;;26.65;52.23
34500;BME280;20745;50.882;6.962;2022-07-31T10:25:27;101056.59;;;26.73;51.61
34500;BME280;20745;50.882;6.962;2022-07-31T10:27:57;101051.06;;;26.58;51.57
34500;BME280;20745;50.882;6.962;2022-07-31T10:30:25;101044.69;;;26.38;51.08
34500;BME280;20745;50.882;6.962;2022-07-31T10:32:54;101036.38;;;26.38;50.90
34500;BME280;20745;50.882;6.962;2022-07-31T10:35:22;101043.03;;;26.52;50.03
34500;BME280;20745;50.882;6.962;2022-07-31T10:38:02;101037.78;;;26.65;50.06
34500;BME280;20745;50.882;6.962;2022-07-31T10:40:44;101035.84;;;26.66;49.63
34500;BME280;20745;50.882;6.962;2022-07-31T10:46:26;101029.72;;;26.69;50.24
34500;BME280;20745;50.882;6.962;2022-07-31T10:48:53;101018.94;;;26.67;50.64
34500;BME280;20745;50.882;6.962;2022-07-31T10:51:20;101028.63;;;26.55;50.03
34500;BME280;20745;50.882;6.962;2022-07-31T10:53:57;101032.50;;;26.54;49.90
34500;BME280;20745;50.882;6.962;2022-07-31T10:56:39;101019.19;;;26.71;49.67
34500;BME280;20745;50.882;6.962;2022-07-31T10:59:14;101021.38;;;26.94;49.15
34500;BME280;20745;50.882;6.962;2022-07-31T11:01:51;101018.25;;;27.10;47.44
34500;BME280;20745;50.882;6.962;2022-07-31T11:04:30;101014.16;;;26.93;47.76
34500;BME280;20745;50.882;6.962;2022-07-31T11:07:18;101006.69;;;26.88;49.04
34500;BME280;20745;50.882;6.962;2022-07-31T11:09:50;101005.88;;;26.83;48.22
34500;BME280;20745;50.882;6.962;2022-07-31T11:12:23;101001.69;;;26.85;48.04
34500;BME280;20745;50.882;6.962;2022-07-31T11:14:52;101013.03;;;26.89;46.55
34500;BME280;20745;50.882;6.962;2022-07-31T11:17:32;101009.72;;;26.97;46.99
34500;BME280;20745;50.882;6.962;2022-07-31T11:20:25;101015.75;;;27.14;46.94
34500;BME280;20745;50.882;6.962;2022-07-31T11:23:04;101017.66;;;27.18;46.44
34500;BME280;20745;50.882;6.962;2022-07-31T11:25:34;101012.06;;;27.38;46.86
34500;BME280;20745;50.882;6.962;2022-07-31T11:28:20;101003.06;;;27.56;46.85
34500;BME280;20745;50.882;6.962;2022-07-31T11:31:00;101008.31;;;27.63;45.99
34500;BME280;20745;50.882;6.962;2022-07-31T11:36:13;100995.63;;;27.47;46.60
34500;BME280;20745;50.882;6.962;2022-07-31T11:38:47;100999.44;;;27.61;45.38
34500;BME280;20745;50.882;6.962;2022-07-31T11:41:20;100996.59;;;27.71;45.16
34500;BME280;20745;50.882;6.962;2022-07-31T11:43:50;100996.97;;;27.98;44.47
34500;BME280;20745;50.882;6.962;2022-07-31T11:46:25;100999.59;;;28.18;44.88
34500;BME280;20745;50.882;6.962;2022-07-31T11:49:19;101006.06;;;28.42;44.01
34500;BME280;20745;50.882;6.962;2022-07-31T11:52:08;100996.44;;;28.29;44.33
34500;BME280;20745;50.882;6.962;2022-07-31T11:55:16;101000.16;;;28.15;44.63
34500;BME280;20745;50.882;6.962;2022-07-31T11:57:44;100995.66;;;28.24;44.91
34500;BME280;20745;50.882;6.962;2022-07-31T12:00:19;100982.34;;;28.21;45.09
34500;BME280;20745;50.882;6.962;2022-07-31T12:02:56;100982.19;;;28.07;45.75
34500;BME280;20745;50.882;6.962;2022-07-31T12:05:24;100980.94;;;27.90;46.10
34500;BME280;20745;50.882;6.962;2022-07-31T12:08:06;100974.94;;;27.73;47.18
34500;BME280;20745;50.882;6.962;2022-07-31T12:10:34;100982.97;;;27.74;46.08
34500;BME280;20745;50.882;6.962;2022-07-31T12:13:01;100979.28;;;27.84;46.22
34500;BME280;20745;50.882;6.962;2022-07-31T12:15:59;100979.88;;;27.86;46.30
34500;BME280;20745;50.882;6.962;2022-07-31T12:18:28;100972.75;;;28.08;45.42
34500;BME280;20745;50.882;6.962;2022-07-31T12:21:02;100979.66;;;28.11;45.58
34500;BME280;20745;50.882;6.962;2022-07-31T12:23:47;100976.31;;;28.14;46.45
34500;BME280;20745;50.882;6.962;2022-07-31T12:26:32;100974.56;;;28.23;45.97
34500;BME280;20745;50.882;6.962;2022-07-31T12:29:02;100976.66;;;28.36;45.81
34500;BME280;20745;50.882;6.962;2022-07-31T12:31:41;100941.56;;;28.45;46.21
34500;BME280;20745;50.882;6.962;2022-07-31T12:34:09;100972.94;;;28.74;44.66
34500;BME280;20745;50.882;6.962;2022-07-31T12:36:42;100966.53;;;28.74;44.83
34500;BME280;20745;50.882;6.962;2022-07-31T12:39:10;100961.91;;;28.69;44.41
34500;BME280;20745;50.882;6.962;2022-07-31T12:41:41;100957.97;;;28.70;45.08
34500;BME280;20745;50.882;6.962;2022-07-31T12:44:14;100958.09;;;28.84;45.25
34500;BME280;20745;50.882;6.962;2022-07-31T12:46:47;100941.97;;;29.09;44.92
34500;BME280;20745;50.882;6.962;2022-07-31T12:49:14;100942.63;;;29.38;44.51
34500;BME280;20745;50.882;6.962;2022-07-31T12:51:42;100942.50;;;29.48;43.87
34500;BME280;20745;50.882;6.962;2022-07-31T12:54:11;100945.81;;;29.50;43.64
34500;BME280;20745;50.882;6.962;2022-07-31T12:56:40;100944.47;;;29.48;43.69
34500;BME280;20745;50.882;6.962;2022-07-31T12:59:08;100935.59;;;29.64;43.99
34500;BME280;20745;50.882;6.962;2022-07-31T13:01:38;100942.34;;;29.58;44.06
34500;BME280;20745;50.882;6.962;2022-07-31T13:04:24;100935.75;;;29.73;43.49
34500;BME280;20745;50.882;6.962;2022-07-31T13:06:52;100935.59;;;29.64;43.70
34500;BME280;20745;50.882;6.962;2022-07-31T13:09:22;100928.50;;;29.53;43.34
34500;BME280;20745;50.882;6.962;2022-07-31T13:11:49;100929.44;;;29.67;43.68
34500;BME280;20745;50.882;6.962;2022-07-31T13:14:42;100922.66;;;29.73;44.15
34500;BME280;20745;50.882;6.962;2022-07-31T13:17:09;100918.44;;;29.76;44.07
34500;BME280;20745;50.882;6.962;2022-07-31T13:19:55;100920.25;;;29.85;43.85
34500;BME280;20745;50.882;6.962;2022-07-31T13:22:22;100916.38;;;29.81;43.36
34500;BME280;20745;50.882;6.962;2022-07-31T13:25:08;100910.75;;;29.86;43.97
34500;BME280;20745;50.882;6.962;2022-07-31T13:27:35;100915.13;;;29.74;44.17
34500;BME280;20745;50.882;6.962;2022-07-31T13:30:03;100906.56;;;29.70;44.06
34500;BME280;20745;50.882;6.962;2022-07-31T13:32:30;100913.31;;;29.64;44.94
34500;BME280;20745;50.882;6.962;2022-07-31T13:35:12;100906.91;;;29.82;44.37
34500;BME280;20745;50.882;6.962;2022-07-31T13:37:54;100905.09;;;29.73;43.66
34500;BME280;20745;50.882;6.962;2022-07-31T13:40:39;100905.66;;;29.75;43.77